Time;durP1;ratioP1;P1;durP2;ratioP2;P2;SDS_P1;SDS_P2;PMS_P1;PMS_P2;Temp;Humidity;BMP_temperature;BMP_pressure;BME280_temperature;BME280_humidity;BME280_pressure;Samples;Min_cycle;Max_cycle;Signal;HPM_P1;HPM_P2
2022/05/31 00:01:05;;;;;;;5.03;2.20;;;9.60;99.90;;;;;;5084254;28;20075;-75
2022/05/31 00:03:31;;;;;;;7.35;2.28;;;9.50;99.90;;;;;;5101177;28;20093;-75
2022/05/31 00:05:57;;;;;;;7.32;2.22;;;9.40;99.90;;;;;;5101446;28;20044;-75
2022/05/31 00:08:22;;;;;;;10.77;2.20;;;9.40;99.90;;;;;;5099927;28;20044;-74
2022/05/31 00:10:48;;;;;;;6.20;2.17;;;9.40;99.90;;;;;;5100024;28;20048;-75
2022/05/31 00:13:14;;;;;;;4.30;1.80;;;9.30;99.90;;;;;;5101073;28;20043;-76
2022/05/31 00:15:40;;;;;;;6.57;2.25;;;9.20;99.90;;;;;;5100721;28;20063;-75
2022/05/31 00:18:06;;;;;;;6.25;2.17;;;9.20;99.90;;;;;;5100167;28;20056;-75
2022/05/31 00:20:32;;;;;;;6.15;2.30;;;9.10;99.90;;;;;;5083349;28;20396;-74
2022/05/31 00:22:58;;;;;;;5.63;2.50;;;9.10;99.90;;;;;;5100884;28;20388;-75
2022/05/31 00:25:24;;;;;;;6.63;2.72;;;9.00;99.90;;;;;;5081817;28;20065;-75
2022/05/31 00:27:50;;;;;;;3.83;1.95;;;9.00;99.90;;;;;;5099364;28;20048;-73
2022/05/31 00:30:16;;;;;;;6.17;2.47;;;8.90;99.90;;;;;;5098078;28;20062;-73
2022/05/31 00:32:46;;;;;;;7.88;2.75;;;8.90;99.90;;;;;;5096515;28;20105;-74
2022/05/31 00:35:19;;;;;;;5.93;2.40;;;8.90;99.90;;;;;;5096937;28;20112;-76
2022/05/31 00:37:46;;;;;;;11.13;3.53;;;8.90;99.90;;;;;;5097954;28;20086;-74
2022/05/31 00:40:15;;;;;;;5.47;2.15;;;8.80;99.90;;;;;;5095812;28;20198;-75
2022/05/31 00:42:46;;;;;;;6.55;2.40;;;8.80;99.90;;;;;;5097020;28;20443;-74
2022/05/31 00:45:12;;;;;;;5.72;2.40;;;8.80;99.90;;;;;;5098345;28;20047;-75
2022/05/31 00:47:38;;;;;;;5.63;2.83;;;8.80;99.90;;;;;;5096647;28;20399;-74
2022/05/31 00:50:09;;;;;;;4.88;2.20;;;8.80;99.90;;;;;;5097397;28;20169;-75
2022/05/31 00:52:48;;;;;;;5.35;2.30;;;8.80;99.90;;;;;;5097578;28;20048;-74
2022/05/31 00:55:20;;;;;;;4.80;2.50;;;8.80;99.90;;;;;;5079236;28;20122;-75
2022/05/31 00:58:00;;;;;;;6.07;2.35;;;8.80;99.90;;;;;;5078248;28;20044;-74
2022/05/31 01:00:26;;;;;;;6.03;2.70;;;8.70;99.90;;;;;;5078451;28;20040;-75
2022/05/31 01:02:52;;;;;;;5.32;2.80;;;8.70;99.90;;;;;;5078073;28;20044;-74
2022/05/31 01:05:19;;;;;;;5.97;2.47;;;8.70;99.90;;;;;;5095164;28;20043;-75
2022/05/31 01:07:46;;;;;;;9.35;2.85;;;8.70;99.90;;;;;;5095561;28;20051;-75
2022/05/31 01:10:14;;;;;;;8.02;2.72;;;8.60;99.90;;;;;;5078197;28;20139;-74
2022/05/31 01:12:42;;;;;;;5.97;2.60;;;8.60;99.90;;;;;;5094630;28;20044;-75
2022/05/31 01:15:12;;;;;;;8.30;3.45;;;8.60;99.90;;;;;;5094769;28;20036;-75
2022/05/31 01:17:42;;;;;;;5.30;2.67;;;8.60;99.90;;;;;;5096075;28;20048;-75
2022/05/31 01:20:20;;;;;;;7.85;2.97;;;8.60;99.90;;;;;;5094412;28;20495;-75
2022/05/31 01:22:52;;;;;;;8.90;2.88;;;8.50;99.90;;;;;;5096088;28;20082;-75
2022/05/31 01:25:21;;;;;;;6.53;2.97;;;8.50;99.90;;;;;;5094327;28;20128;-75
2022/05/31 01:28:11;;;;;;;5.50;2.60;;;8.50;99.90;;;;;;5096322;28;20059;-75
2022/05/31 01:31:10;;;;;;;7.38;3.55;;;8.50;99.90;;;;;;5094162;28;20040;-76
2022/05/31 01:33:45;;;;;;;7.03;3.15;;;8.50;99.90;;;;;;5074449;28;20052;-75
2022/05/31 01:36:25;;;;;;;6.72;3.05;;;8.50;99.90;;;;;;5093958;28;20040;-75
2022/05/31 01:39:01;;;;;;;6.47;3.22;;;8.40;99.90;;;;;;5095564;28;20180;-75
2022/05/31 01:41:46;;;;;;;7.40;3.30;;;8.40;99.90;;;;;;5094405;28;20102;-75
2022/05/31 01:44:15;;;;;;;7.18;2.80;;;8.40;99.90;;;;;;5094494;28;20641;-76
2022/05/31 01:46:41;;;;;;;6.88;3.03;;;8.40;99.90;;;;;;5095683;28;20103;-75
2022/05/31 01:49:10;;;;;;;7.17;3.43;;;8.40;99.90;;;;;;5095497;28;20082;-75
2022/05/31 01:51:40;;;;;;;7.95;3.28;;;8.40;99.90;;;;;;5077452;28;20051;-75
2022/05/31 01:54:07;;;;;;;7.05;3.13;;;8.40;99.90;;;;;;5094229;28;20055;-75
2022/05/31 01:56:35;;;;;;;6.07;3.00;;;8.40;99.90;;;;;;5076549;28;20080;-73
2022/05/31 01:59:03;;;;;;;10.23;3.47;;;8.40;99.90;;;;;;5094880;28;20056;-74
2022/05/31 02:01:31;;;;;;;6.20;3.28;;;8.40;99.90;;;;;;5076612;28;20090;-75
2022/05/31 02:03:58;;;;;;;6.18;3.20;;;8.40;99.90;;;;;;5093880;28;20044;-74
2022/05/31 02:06:36;;;;;;;7.78;3.05;;;8.40;99.90;;;;;;5093910;28;20182;-75
2022/05/31 02:09:06;;;;;;;7.50;3.17;;;8.40;99.90;;;;;;5094153;28;20044;-75
2022/05/31 02:11:32;;;;;;;6.72;3.38;;;8.50;99.90;;;;;;5095424;28;20054;-75
2022/05/31 02:13:58;;;;;;;7.60;3.20;;;8.50;99.90;;;;;;5076305;28;20036;-74
2022/05/31 02:16:25;;;;;;;8.40;3.10;;;8.60;99.90;;;;;;5092648;28;20051;-74
2022/05/31 02:21:35;;;;;;;7.10;3.80;;;8.70;99.90;;;;;;5093981;28;20052;-75
2022/05/31 02:24:07;;;;;;;8.32;3.78;;;8.70;99.90;;;;;;5093135;28;20052;-75
2022/05/31 02:26:34;;;;;;;7.72;3.53;;;8.70;99.90;;;;;;5076362;28;20048;-76
2022/05/31 02:28:59;;;;;;;6.93;3.50;;;8.70;99.90;;;;;;5092641;28;20078;-74
2022/05/31 02:31:27;;;;;;;7.40;3.33;;;8.80;99.90;;;;;;5075840;28;20286;-76
2022/05/31 02:33:53;;;;;;;8.50;3.97;;;8.90;99.90;;;;;;5075945;28;20090;-75
2022/05/31 02:36:19;;;;;;;8.25;3.70;;;8.90;99.90;;;;;;5093376;28;20506;-75
2022/05/31 02:38:45;;;;;;;7.38;3.35;;;8.90;99.90;;;;;;5092433;28;20048;-76
2022/05/31 02:41:11;;;;;;;9.07;3.90;;;8.90;99.90;;;;;;5075747;28;20056;-74
2022/05/31 02:43:36;;;;;;;10.82;3.88;;;8.90;99.90;;;;;;5076030;28;20048;-74
2022/05/31 02:46:03;;;;;;;9.98;4.28;;;9.00;99.90;;;;;;5093095;28;20048;-73
2022/05/31 02:48:29;;;;;;;6.60;3.60;;;9.00;99.90;;;;;;5076116;28;20040;-75
2022/05/31 02:50:55;;;;;;;7.15;3.58;;;9.00;99.90;;;;;;5076335;28;20147;-76
2022/05/31 02:53:21;;;;;;;9.73;4.18;;;9.10;99.90;;;;;;5092816;28;20048;-75
2022/05/31 02:55:47;;;;;;;7.20;3.90;;;9.10;99.90;;;;;;5076209;28;20460;-73
2022/05/31 02:58:13;;;;;;;9.95;4.65;;;9.10;99.90;;;;;;5093202;28;20066;-74
2022/05/31 03:00:39;;;;;;;8.32;3.83;;;9.10;99.90;;;;;;5093861;28;20105;-75
2022/05/31 03:03:07;;;;;;;7.68;3.80;;;9.10;99.90;;;;;;5093555;28;20158;-75
2022/05/31 03:05:33;;;;;;;7.85;3.67;;;9.10;99.90;;;;;;5075735;28;20083;-75
2022/05/31 03:07:59;;;;;;;7.90;4.20;;;9.20;99.90;;;;;;5091911;28;20044;-74
2022/05/31 03:10:33;;;;;;;9.02;4.10;;;9.20;99.90;;;;;;5092908;28;20048;-75
2022/05/31 03:12:59;;;;;;;8.30;4.15;;;9.20;99.90;;;;;;5094211;28;20085;-75
2022/05/31 03:15:26;;;;;;;8.47;4.00;;;9.20;99.90;;;;;;5093254;28;20098;-75
2022/05/31 03:18:07;;;;;;;10.88;4.45;;;9.20;99.90;;;;;;5094961;28;20048;-75
2022/05/31 03:20:41;;;;;;;8.35;4.13;;;9.20;99.90;;;;;;5093950;28;20048;-74
2022/05/31 03:23:19;;;;;;;7.80;4.28;;;9.30;99.90;;;;;;5093709;28;20048;-75
2022/05/31 03:25:48;;;;;;;8.80;4.47;;;9.20;99.90;;;;;;5094206;28;20051;-75
2022/05/31 03:28:14;;;;;;;8.38;4.28;;;9.30;99.90;;;;;;5094744;28;20040;-74
2022/05/31 03:30:41;;;;;;;7.43;4.18;;;9.30;99.90;;;;;;5075980;28;20052;-75
2022/05/31 03:33:09;;;;;;;10.57;4.20;;;9.30;99.90;;;;;;5076860;28;20341;-75
2022/05/31 03:35:35;;;;;;;7.63;4.10;;;9.30;99.90;;;;;;5094518;28;20043;-75
2022/05/31 03:38:01;;;;;;;8.90;4.43;;;9.30;99.90;;;;;;5060687;28;20054;-74
2022/05/31 03:43:11;;;;;;;8.57;4.57;;;9.40;99.90;;;;;;5094572;28;20055;-75
2022/05/31 03:45:39;;;;;;;8.82;4.60;;;9.30;99.90;;;;;;5095024;28;20044;-76
2022/05/31 03:48:06;;;;;;;8.25;4.63;;;9.40;99.90;;;;;;5093839;28;20044;-75
2022/05/31 03:50:33;;;;;;;7.72;4.60;;;9.40;99.90;;;;;;5092548;28;20123;-75
2022/05/31 03:52:59;;;;;;;7.53;4.20;;;9.40;99.90;;;;;;5092933;28;20052;-75
2022/05/31 03:55:25;;;;;;;9.18;4.20;;;9.40;99.90;;;;;;5076704;28;20047;-76
2022/05/31 03:57:52;;;;;;;7.20;3.88;;;9.40;99.90;;;;;;5076821;28;20476;-76
2022/05/31 04:00:18;;;;;;;;;;;9.40;99.90;;;;;;5094348;28;20048;-76
2022/05/31 04:02:50;;;;;;;7.65;4.43;;;9.40;99.90;;;;;;5110309;28;20049;-75
2022/05/31 04:05:15;;;;;;;10.38;4.20;;;9.40;99.90;;;;;;5093219;28;20492;-75
2022/05/31 04:07:41;;;;;;;7.00;4.10;;;9.50;99.90;;;;;;5093426;28;20505;-75
2022/05/31 04:10:08;;;;;;;8.45;4.05;;;9.50;99.90;;;;;;5095207;28;20052;-75
2022/05/31 04:12:34;;;;;;;9.90;4.30;;;9.50;99.90;;;;;;5093790;28;20468;-75
2022/05/31 04:15:00;;;;;;;9.77;4.57;;;9.60;99.90;;;;;;5076147;28;20043;-74
2022/05/31 04:17:26;;;;;;;8.60;4.10;;;9.60;99.90;;;;;;5098596;28;20104;-76
2022/05/31 04:19:52;;;;;;;10.68;4.00;;;9.60;99.90;;;;;;5098217;28;20058;-75
2022/05/31 04:22:18;;;;;;;8.85;4.13;;;9.60;99.90;;;;;;5098421;28;20083;-75
2022/05/31 04:24:43;;;;;;;8.05;3.95;;;9.70;99.90;;;;;;5098961;28;20048;-74
2022/05/31 04:27:15;;;;;;;9.73;3.90;;;9.70;99.90;;;;;;5115390;28;20074;-74
2022/05/31 04:29:41;;;;;;;8.20;3.90;;;9.70;99.90;;;;;;5098548;28;20058;-75
2022/05/31 04:32:07;;;;;;;7.05;4.05;;;9.80;99.90;;;;;;5098809;28;20036;-75
2022/05/31 04:34:33;;;;;;;7.50;4.30;;;9.80;99.90;;;;;;5101519;28;20368;-73
2022/05/31 04:37:00;;;;;;;8.80;4.43;;;9.90;99.90;;;;;;5098760;28;20040;-76
2022/05/31 04:39:26;;;;;;;7.38;4.03;;;9.90;99.90;;;;;;5098476;28;20117;-76
2022/05/31 04:41:52;;;;;;;7.82;4.07;;;9.90;99.90;;;;;;5098071;28;20475;-75
2022/05/31 04:44:18;;;;;;;7.20;3.97;;;10.00;99.90;;;;;;5064633;28;20048;-74
2022/05/31 04:46:44;;;;;;;7.60;3.50;;;10.00;99.90;;;;;;5098152;28;20044;-75
2022/05/31 04:49:11;;;;;;;8.50;3.75;;;10.00;99.90;;;;;;5096958;28;20051;-74
2022/05/31 04:51:37;;;;;;;9.65;3.97;;;10.10;99.90;;;;;;5095742;28;20492;-75
2022/05/31 04:54:04;;;;;;;10.30;3.90;;;10.10;99.90;;;;;;5096534;28;20044;-75
2022/05/31 04:56:30;;;;;;;;;;;10.20;99.90;;;;;;5095445;28;20047;-75
2022/05/31 04:58:56;;;;;;;11.47;3.93;;;10.20;99.90;;;;;;5094995;28;19920;-75
2022/05/31 05:01:23;;;;;;;8.23;3.95;;;10.30;99.90;;;;;;5095685;28;20052;-75
2022/05/31 05:03:49;;;;;;;;;;;10.30;99.90;;;;;;5096481;28;20043;-76
2022/05/31 05:06:17;;;;;;;6.80;3.35;;;10.40;99.90;;;;;;5096465;28;19993;-76
2022/05/31 05:08:43;;;;;;;6.72;3.40;;;10.40;99.90;;;;;;5094665;28;20052;-74
2022/05/31 05:11:15;;;;;;;7.65;3.40;;;10.50;99.90;;;;;;5095349;28;20075;-75
2022/05/31 05:13:41;;;;;;;8.63;3.50;;;10.50;99.90;;;;;;5095296;28;20116;-75
2022/05/31 05:16:08;;;;;;;7.65;3.92;;;10.60;99.90;;;;;;5095127;28;20062;-76
2022/05/31 05:18:35;;;;;;;9.15;4.30;;;10.60;99.90;;;;;;5096029;28;20055;-75
2022/05/31 05:21:03;;;;;;;6.07;3.40;;;10.70;99.90;;;;;;5078170;28;20095;-75
2022/05/31 05:23:29;;;;;;;8.50;3.80;;;10.80;99.90;;;;;;5078107;28;20377;-75
2022/05/31 05:25:56;;;;;;;7.87;4.27;;;10.80;99.90;;;;;;5096589;28;20048;-76
2022/05/31 05:31:27;;;;;;;7.50;3.95;;;10.90;99.90;;;;;;5096473;28;20052;-74
2022/05/31 05:33:56;;;;;;;8.37;3.80;;;10.90;99.90;;;;;;5094977;28;20481;-75
2022/05/31 05:36:23;;;;;;;7.05;3.15;;;11.00;99.90;;;;;;5078308;28;20309;-75
2022/05/31 05:38:49;;;;;;;8.25;3.78;;;11.00;99.90;;;;;;5061606;28;20491;-77
2022/05/31 05:41:17;;;;;;;6.13;3.30;;;11.10;99.90;;;;;;5095428;28;20491;-76
2022/05/31 05:43:42;;;;;;;;;;;11.10;99.90;;;;;;5096267;28;20043;-75
2022/05/31 05:46:17;;;;;;;11.37;3.47;;;11.20;99.90;;;;;;5095747;28;19920;-76
2022/05/31 05:48:43;;;;;;;8.95;3.53;;;11.30;99.90;;;;;;5097160;28;20377;-74
2022/05/31 05:51:21;;;;;;;7.28;3.42;;;11.30;99.90;;;;;;5096047;28;20106;-76
2022/05/31 05:53:47;;;;;;;9.43;3.53;;;11.40;99.90;;;;;;5095083;28;20491;-74
2022/05/31 05:56:13;;;;;;;7.95;3.42;;;11.50;99.90;;;;;;5095916;28;20111;-75
2022/05/31 05:58:40;;;;;;;8.53;4.33;;;11.50;99.90;;;;;;5093371;28;20036;-75
2022/05/31 06:01:08;;;;;;;;;;;11.60;99.90;;;;;;5094206;28;20113;-74
2022/05/31 06:04:03;;;;;;;7.95;3.60;;;11.60;99.90;;;;;;5094735;28;19924;-75
2022/05/31 06:06:32;;;;;;;9.02;4.85;;;11.80;99.90;;;;;;5077280;28;20050;-76
2022/05/31 06:09:04;;;;;;;11.52;5.00;;;11.80;99.90;;;;;;5093657;28;20123;-76
2022/05/31 06:11:45;;;;;;;9.45;4.32;;;11.90;99.90;;;;;;5093719;28;20120;-74
2022/05/31 06:14:16;;;;;;;6.20;3.38;;;12.00;99.90;;;;;;5094664;28;20126;-77
2022/05/31 06:16:56;;;;;;;6.30;3.50;;;12.10;99.90;;;;;;5095182;28;20110;-75
2022/05/31 06:19:27;;;;;;;6.13;3.45;;;12.10;99.90;;;;;;5094130;28;20051;-74
2022/05/31 06:21:53;;;;;;;8.43;3.20;;;12.20;99.90;;;;;;5077343;28;20147;-75
2022/05/31 06:24:20;;;;;;;10.40;3.70;;;12.30;99.90;;;;;;5092990;28;20048;-75
2022/05/31 06:26:45;;;;;;;7.28;3.60;;;12.30;99.90;;;;;;5092647;28;20047;-75
2022/05/31 06:29:11;;;;;;;7.95;3.60;;;12.40;99.90;;;;;;5092867;28;20044;-76
2022/05/31 06:31:38;;;;;;;7.18;3.88;;;12.50;99.90;;;;;;5076903;28;20048;-75
2022/05/31 06:34:04;;;;;;;7.65;3.47;;;12.50;99.90;;;;;;5093907;28;20040;-75
2022/05/31 06:36:30;;;;;;;13.15;4.50;;;12.60;99.90;;;;;;5093939;28;20036;-75
2022/05/31 06:38:56;;;;;;;6.80;3.23;;;12.70;99.90;;;;;;5093600;28;20127;-76
2022/05/31 06:41:22;;;;;;;7.03;3.00;;;12.80;99.90;;;;;;5094195;28;20052;-76
2022/05/31 06:43:48;;;;;;;9.45;3.38;;;12.90;99.90;;;;;;5092621;28;20048;-75
2022/05/31 06:46:15;;;;;;;11.25;3.15;;;13.00;99.90;;;;;;5092445;28;20123;-76
2022/05/31 06:48:41;;;;;;;9.07;3.10;;;13.00;99.90;;;;;;5092474;28;20411;-75
2022/05/31 06:51:10;;;;;;;7.87;2.97;;;13.10;99.90;;;;;;5096561;28;20282;-77
2022/05/31 06:59:08;;;;;;;9.30;3.22;;;13.30;99.90;;;;;;5098131;28;20051;-76
2022/05/31 07:01:39;;;;;;;9.82;2.97;;;13.40;99.90;;;;;;5093723;28;20130;-75
2022/05/31 07:04:05;;;;;;;5.80;2.80;;;13.40;99.90;;;;;;5093657;28;20187;-76
2022/05/31 07:06:32;;;;;;;8.35;3.42;;;13.50;99.90;;;;;;5093513;28;20036;-74
2022/05/31 07:08:59;;;;;;;8.95;3.53;;;13.50;99.90;;;;;;5093440;28;20105;-76
2022/05/31 07:11:25;;;;;;;;;;;13.60;99.90;;;;;;5092814;28;20052;-75
2022/05/31 07:13:51;;;;;;;7.77;2.87;;;13.70;99.90;;;;;;5091809;28;20401;-77
2022/05/31 07:16:17;;;;;;;7.78;3.05;;;13.80;99.90;;;;;;5093438;28;20125;-76
2022/05/31 07:18:44;;;;;;;8.15;3.45;;;14.00;99.90;;;;;;5092207;28;20052;-76
2022/05/31 07:21:10;;;;;;;7.65;3.15;;;14.00;99.90;;;;;;5109857;28;20439;-76
2022/05/31 07:23:38;;;;;;;9.20;3.87;;;14.10;99.90;;;;;;5093493;28;20047;-78
2022/05/31 07:26:04;;;;;;;10.65;4.05;;;14.10;99.90;;;;;;5093758;28;20040;-75
2022/05/31 07:28:30;;;;;;;9.33;4.00;;;14.30;99.90;;;;;;5092149;28;20394;-75
2022/05/31 07:30:56;;;;;;;7.43;3.87;;;14.20;99.90;;;;;;5092378;28;20036;-74
2022/05/31 07:33:23;;;;;;;11.35;3.88;;;14.30;99.90;;;;;;5093398;28;20278;-76
2022/05/31 07:35:49;;;;;;;8.63;3.43;;;14.40;99.90;;;;;;5093127;28;20059;-75
2022/05/31 07:38:23;;;;;;;8.57;3.95;;;14.50;99.90;;;;;;5093529;28;20118;-76
2022/05/31 07:40:50;;;;;;;9.68;4.22;;;14.70;99.90;;;;;;5092420;28;20044;-76
2022/05/31 07:43:16;;;;;;;6.88;3.70;;;14.80;99.90;;;;;;5093026;28;20056;-76
2022/05/31 07:45:48;;;;;;;8.15;3.90;;;14.80;99.90;;;;;;5109610;28;20054;-75
2022/05/31 07:48:14;;;;;;;11.32;4.35;;;14.90;99.90;;;;;;5058487;28;20040;-75
2022/05/31 07:50:40;;;;;;;8.90;4.55;;;14.90;99.90;;;;;;5074057;28;20048;-76
2022/05/31 07:53:06;;;;;;;11.07;4.57;;;14.90;99.90;;;;;;5093336;28;20420;-76
2022/05/31 07:55:32;;;;;;;9.40;3.83;;;15.10;99.90;;;;;;5092828;28;20040;-77
2022/05/31 08:00:42;;;;;;;10.35;4.50;;;15.30;98.00;;;;;;5093440;28;20055;-75
2022/05/31 08:03:08;;;;;;;11.18;5.32;;;15.30;98.50;;;;;;5092812;28;20044;-76
2022/05/31 08:05:39;;;;;;;10.80;5.20;;;15.40;98.60;;;;;;5091695;28;20131;-77
2022/05/31 08:08:05;;;;;;;10.70;4.60;;;15.40;98.90;;;;;;5091961;28;20055;-75
2022/05/31 08:10:31;;;;;;;9.68;4.95;;;15.60;99.20;;;;;;5091826;28;20426;-79
2022/05/31 08:12:57;;;;;;;10.05;5.40;;;15.70;98.70;;;;;;5091604;28;20051;-77
2022/05/31 08:15:22;;;;;;;12.25;6.05;;;15.90;95.20;;;;;;5091771;28;20063;-78
2022/05/31 08:17:48;;;;;;;10.20;5.35;;;15.90;95.80;;;;;;5093500;28;20506;-77
2022/05/31 08:20:17;;;;;;;10.95;4.55;;;16.00;94.20;;;;;;5079276;28;20056;-76
2022/05/31 08:22:45;;;;;;;10.27;4.63;;;15.90;94.90;;;;;;5092967;28;20365;-77
2022/05/31 08:25:12;;;;;;;10.73;4.85;;;16.10;94.40;;;;;;5076024;28;20146;-77
2022/05/31 08:27:41;;;;;;;9.20;4.88;;;16.20;93.90;;;;;;5096691;28;20059;-74
2022/05/31 08:30:07;;;;;;;10.70;5.10;;;16.20;93.40;;;;;;5093678;28;20040;-77
2022/05/31 08:32:34;;;;;;;9.88;4.93;;;16.30;93.30;;;;;;5077479;28;20059;-78
2022/05/31 08:35:01;;;;;;;13.60;4.93;;;16.40;93.50;;;;;;5096163;28;20044;-77
2022/05/31 08:37:27;;;;;;;9.85;5.35;;;16.40;93.40;;;;;;5076520;28;20119;-77
2022/05/31 08:39:53;;;;;;;14.43;5.85;;;16.50;92.70;;;;;;5093493;28;20055;-77
2022/05/31 08:42:24;;;;;;;13.05;5.65;;;16.60;92.10;;;;;;5093607;28;20044;-77
2022/05/31 08:45:03;;;;;;;8.98;5.20;;;16.70;91.10;;;;;;5093470;28;20436;-77
2022/05/31 08:47:50;;;;;;;9.05;5.30;;;16.60;90.60;;;;;;5093809;28;20059;-76
2022/05/31 08:53:16;;;;;;;12.38;4.70;;;16.90;90.70;;;;;;5098797;28;20052;-79
2022/05/31 08:58:55;;;;;;;10.60;5.50;;;17.20;83.90;;;;;;5095020;28;20130;-75
2022/05/31 09:01:26;;;;;;;9.60;5.88;;;17.30;85.50;;;;;;5092794;28;20040;-78
2022/05/31 09:03:56;;;;;;;10.80;6.00;;;17.60;86.10;;;;;;5079225;28;20043;-77
2022/05/31 09:06:28;;;;;;;13.30;6.15;;;17.90;85.60;;;;;;5080039;28;20135;-77
2022/05/31 09:09:16;;;;;;;11.95;5.78;;;18.20;83.40;;;;;;5098982;28;20044;-79
2022/05/31 09:11:56;;;;;;;11.98;5.70;;;18.60;79.20;;;;;;5098791;28;20048;-78
2022/05/31 09:14:41;;;;;;;11.50;5.80;;;18.90;81.00;;;;;;5098985;28;20048;-77
2022/05/31 09:17:21;;;;;;;11.97;6.13;;;18.70;78.90;;;;;;5099206;28;20142;-76
2022/05/31 09:20:08;;;;;;;14.27;6.22;;;18.90;76.50;;;;;;5098673;28;20360;-77
2022/05/31 09:22:36;;;;;;;13.95;6.20;;;18.80;79.20;;;;;;5098028;28;20394;-78
2022/05/31 09:25:05;;;;;;;13.05;6.03;;;18.80;74.80;;;;;;5098549;28;20547;-77
2022/05/31 09:27:44;;;;;;;10.75;6.20;;;18.90;79.50;;;;;;5079811;28;20353;-78
2022/05/31 09:30:43;;;;;;;11.45;6.20;;;18.90;77.70;;;;;;5096715;28;20127;-76
2022/05/31 09:33:25;;;;;;;14.15;6.78;;;19.00;74.10;;;;;;5095694;28;20044;-77
2022/05/31 09:36:15;;;;;;;10.38;5.93;;;18.80;74.50;;;;;;5095223;28;20135;-77
2022/05/31 09:39:33;;;;;;;12.55;6.15;;;18.70;74.70;;;;;;5095912;28;20575;-77
2022/05/31 09:42:16;;;;;;;12.07;6.00;;;18.70;74.00;;;;;;5042700;28;20092;-78
2022/05/31 09:44:47;;;;;;;12.68;7.15;;;18.60;70.90;;;;;;5098202;28;20108;-77
2022/05/31 09:47:26;;;;;;;16.25;6.78;;;18.50;72.00;;;;;;5095782;28;20093;-75
2022/05/31 09:49:54;;;;;;;13.02;6.38;;;18.50;74.20;;;;;;5097405;28;20051;-77
2022/05/31 09:52:43;;;;;;;14.30;6.95;;;18.60;74.20;;;;;;5097578;28;20160;-78
2022/05/31 09:58:32;;;;;;;17.35;6.28;;;18.90;68.80;;;;;;5107348;28;20070;-77
2022/05/31 10:01:13;;;;;;;11.20;5.68;;;19.00;69.50;;;;;;5097003;28;20044;-77
2022/05/31 10:03:48;;;;;;;13.65;5.70;;;19.20;70.30;;;;;;5098061;28;20052;-78
2022/05/31 10:06:30;;;;;;;9.48;4.90;;;19.40;66.80;;;;;;5098312;28;20055;-78
2022/05/31 10:09:13;;;;;;;12.95;5.00;;;19.50;65.60;;;;;;5097202;28;20051;-77
2022/05/31 10:11:44;;;;;;;13.90;5.50;;;19.40;65.90;;;;;;5080946;28;20097;-78
2022/05/31 10:14:33;;;;;;;12.13;5.03;;;19.40;63.30;;;;;;5079899;28;20044;-78
2022/05/31 10:17:33;;;;;;;9.98;4.10;;;19.20;64.00;;;;;;5080459;28;20395;-78
2022/05/31 10:20:22;;;;;;;9.98;4.07;;;19.10;60.20;;;;;;5097937;28;20044;-79
2022/05/31 10:23:06;;;;;;;9.65;4.55;;;18.90;62.00;;;;;;5098185;28;20048;-78
2022/05/31 10:25:41;;;;;;;12.93;4.72;;;18.70;61.00;;;;;;5096630;28;20442;-77
2022/05/31 10:28:26;;;;;;;8.52;3.55;;;18.50;62.10;;;;;;5096472;28;20049;-78
2022/05/31 10:31:02;;;;;;;9.23;4.15;;;18.50;60.50;;;;;;5096266;28;20090;-76
2022/05/31 10:33:28;;;;;;;13.65;4.30;;;18.50;62.50;;;;;;5095095;28;20372;-76
2022/05/31 10:36:08;;;;;;;11.80;5.70;;;18.40;58.60;;;;;;5096777;28;20044;-78
2022/05/31 10:38:40;;;;;;;14.95;5.80;;;18.00;60.70;;;;;;5097191;28;20040;-78
2022/05/31 10:41:11;;;;;;;15.80;5.47;;;18.20;62.60;;;;;;5096068;28;20200;-78
2022/05/31 10:43:40;;;;;;;14.43;6.00;;;18.10;62.60;;;;;;5098120;28;20044;-77
2022/05/31 10:46:15;;;;;;;17.08;6.38;;;18.20;62.90;;;;;;5096906;28;20479;-77
2022/05/31 10:48:50;;;;;;;13.48;6.20;;;17.90;64.00;;;;;;5095272;28;20055;-76
2022/05/31 10:51:18;;;;;;;12.85;5.90;;;17.90;65.80;;;;;;5096995;28;20074;-77
2022/05/31 10:54:05;;;;;;;13.00;6.00;;;18.00;65.40;;;;;;5096220;28;20063;-77
2022/05/31 10:56:33;;;;;;;11.48;5.82;;;18.00;64.50;;;;;;5096397;28;20044;-77
2022/05/31 10:59:03;;;;;;;15.80;6.07;;;18.00;65.10;;;;;;5101693;28;20047;-78
2022/05/31 11:01:33;;;;;;;12.50;5.22;;;18.10;63.10;;;;;;5105013;28;20042;-77
2022/05/31 11:04:08;;;;;;;12.80;6.50;;;18.10;64.00;;;;;;5104353;28;20044;-77
2022/05/31 11:07:02;;;;;;;14.50;6.85;;;18.10;63.30;;;;;;5104374;28;20110;-77
2022/05/31 11:13:19;;;;;;;14.23;6.57;;;18.10;64.00;;;;;;5100526;28;20044;-78
2022/05/31 11:16:06;;;;;;;17.65;6.85;;;18.20;63.90;;;;;;5064545;28;20155;-74
2022/05/31 11:18:52;;;;;;;12.43;6.40;;;18.10;65.20;;;;;;5085356;28;20067;-76
2022/05/31 11:21:46;;;;;;;18.60;7.65;;;18.10;63.90;;;;;;5082746;28;20460;-77
2022/05/31 11:24:21;;;;;;;16.65;7.15;;;17.80;64.40;;;;;;5099501;28;20047;-77
2022/05/31 11:26:53;;;;;;;18.67;7.38;;;17.90;64.80;;;;;;5105430;28;20036;-78
2022/05/31 11:29:33;;;;;;;13.32;7.22;;;18.00;64.30;;;;;;5104288;28;20044;-79
2022/05/31 11:32:26;;;;;;;14.23;6.88;;;17.90;65.00;;;;;;5103125;28;20092;-76
2022/05/31 11:35:06;;;;;;;15.30;7.60;;;17.80;65.60;;;;;;5086629;28;20058;-77
2022/05/31 11:37:40;;;;;;;13.43;7.30;;;17.80;65.60;;;;;;5097573;28;20055;-79
2022/05/31 11:40:19;;;;;;;12.23;7.20;;;17.90;65.70;;;;;;5097443;28;20148;-75
2022/05/31 11:43:14;;;;;;;11.85;6.70;;;17.90;66.70;;;;;;5096125;28;20058;-78
2022/05/31 11:46:00;;;;;;;15.15;6.97;;;18.00;66.80;;;;;;5039520;28;20458;-79
2022/05/31 11:48:45;;;;;;;15.48;7.75;;;18.20;66.20;;;;;;5094659;28;20044;-77
2022/05/31 11:51:27;;;;;;;16.65;7.57;;;18.30;64.90;;;;;;5093439;28;20131;-77
2022/05/31 11:54:18;;;;;;;16.42;7.25;;;17.60;64.30;;;;;;5094438;28;20365;-77
2022/05/31 11:57:19;;;;;;;14.93;6.97;;;17.90;65.90;;;;;;5093830;28;20039;-76
2022/05/31 11:59:51;;;;;;;12.23;6.28;;;18.10;64.50;;;;;;5092764;28;20052;-76
2022/05/31 12:02:28;;;;;;;10.07;5.55;;;18.10;65.10;;;;;;5094571;28;20117;-77
2022/05/31 12:05:11;;;;;;;16.35;6.75;;;18.20;65.00;;;;;;5094946;28;20074;-76
2022/05/31 12:07:43;;;;;;;14.43;7.05;;;18.40;64.90;;;;;;5094283;28;20032;-77
2022/05/31 12:10:17;;;;;;;14.38;7.40;;;18.50;65.40;;;;;;5093085;28;20129;-77
2022/05/31 12:12:44;;;;;;;11.60;6.90;;;18.50;65.40;;;;;;5094359;28;20076;-77
2022/05/31 12:15:14;;;;;;;;;;;18.60;65.40;;;;;;5093335;28;20048;-79
2022/05/31 12:17:58;;;;;;;18.25;7.70;;;18.70;64.40;;;;;;5092533;28;19969;-78
2022/05/31 12:20:29;;;;;;;16.45;7.70;;;18.70;65.00;;;;;;5093399;28;20471;-76
2022/05/31 12:23:05;;;;;;;11.80;6.38;;;18.40;64.50;;;;;;5093781;28;20043;-76
2022/05/31 12:25:37;;;;;;;15.23;7.15;;;18.70;65.70;;;;;;5094114;28;20040;-76
2022/05/31 12:28:11;;;;;;;17.00;6.50;;;18.80;65.90;;;;;;5094620;28;20134;-77
2022/05/31 12:30:52;;;;;;;15.80;6.18;;;18.80;63.20;;;;;;5093534;28;20066;-77
2022/05/31 12:36:09;;;;;;;12.40;5.55;;;19.30;63.10;;;;;;5092990;28;20104;-77
2022/05/31 12:38:55;;;;;;;10.98;4.30;;;19.50;57.60;;;;;;5079824;28;20118;-76
2022/05/31 12:41:42;;;;;;;8.57;4.47;;;19.30;58.30;;;;;;5095654;28;20063;-77
2022/05/31 12:44:13;;;;;;;13.48;4.75;;;19.60;57.80;;;;;;5097394;28;20119;-77
2022/05/31 12:46:46;;;;;;;14.25;5.60;;;19.70;55.80;;;;;;5096920;28;20036;-77
2022/05/31 12:49:28;;;;;;;12.15;6.15;;;19.60;59.10;;;;;;5096064;28;20119;-76
2022/05/31 12:52:08;;;;;;;8.88;5.32;;;19.70;58.20;;;;;;5096884;28;20048;-78
2022/05/31 12:54:56;;;;;;;11.55;5.07;;;19.90;55.60;;;;;;5078513;28;20478;-77
2022/05/31 12:58:26;;;;;;;10.07;4.57;;;19.80;55.70;;;;;;5095410;28;20032;-75
2022/05/31 13:00:35;;;;;;;11.60;5.50;;;19.70;57.20;;;;;;5095155;28;20525;-75
2022/05/31 13:03:05;;;;;;;11.43;5.47;;;19.50;57.10;;;;;;5095242;28;20044;-76
2022/05/31 13:05:39;;;;;;;13.90;5.50;;;19.60;58.50;;;;;;5078894;28;20126;-76
2022/05/31 13:08:19;;;;;;;18.17;5.38;;;19.50;57.90;;;;;;5094721;28;20044;-77
2022/05/31 13:22:07;;;;;;;9.35;4.60;;;18.80;56.70;;;;;;5095974;28;20044;-77
2022/05/31 13:24:36;;;;;;;12.35;4.55;;;18.60;57.40;;;;;;5077973;28;20076;-75
2022/05/31 13:27:06;;;;;;;10.52;3.90;;;18.50;56.30;;;;;;5094600;28;20044;-77
2022/05/31 13:29:32;;;;;;;10.88;3.92;;;18.60;57.30;;;;;;5094407;28;20040;-77
2022/05/31 13:32:03;;;;;;;10.07;4.33;;;18.70;56.10;;;;;;5095178;28;20036;-76
2022/05/31 13:34:40;;;;;;;9.65;4.55;;;18.70;55.40;;;;;;5094909;28;20036;-75
2022/05/31 13:37:18;;;;;;;13.15;4.65;;;18.70;55.20;;;;;;5094711;28;20048;-77
2022/05/31 13:39:47;;;;;;;9.98;4.55;;;18.90;55.00;;;;;;5095279;28;20039;-76
2022/05/31 13:42:21;;;;;;;10.25;4.18;;;19.00;56.70;;;;;;5094998;28;20426;-76
2022/05/31 13:44:47;;;;;;;11.35;4.50;;;19.20;56.70;;;;;;5096577;28;20044;-76
2022/05/31 13:47:18;;;;;;;14.70;5.17;;;19.70;56.70;;;;;;5095260;28;20045;-75
2022/05/31 13:49:45;;;;;;;12.63;4.95;;;20.10;53.90;;;;;;5094498;28;20293;-78
2022/05/31 13:52:25;;;;;;;12.77;5.40;;;20.40;53.30;;;;;;5094379;28;20076;-77
2022/05/31 13:54:54;;;;;;;13.75;5.43;;;20.10;51.20;;;;;;5095620;28;20460;-77